createdAt,value
2019-01-04T00:32:25.703Z,22.98
2019-01-04T00:35:14.019Z,20.93
2019-01-04T04:34:18.057Z,24.73
2019-01-04T04:37:06.379Z,13.43
2019-01-04T04:52:06.867Z,24.77
2019-01-04T04:54:55.184Z,24.40
2019-01-04T06:00:24.024Z,20.27
2019-01-04T09:45:23.950Z,18.73
2019-01-04T13:30:08.672Z,8.47
2019-01-04T13:32:57.195Z,9.30
2019-01-04T13:56:36.894Z,8.40
2019-01-04T14:08:07.047Z,6.67
2019-01-04T14:10:55.355Z,5.57
2019-01-04T14:13:43.666Z,6.47
2019-01-04T15:40:10.152Z,8.07
2019-01-04T15:42:39.094Z,9.27
2019-01-04T15:45:08.431Z,7.47
2019-01-04T15:47:37.406Z,6.73
2019-01-04T15:50:07.672Z,9.60
2019-01-04T15:52:36.632Z,6.90
2019-01-04T15:55:05.634Z,7.13
2019-01-04T15:57:34.774Z,7.97
2019-01-04T16:00:04.998Z,7.57
2019-01-04T16:02:33.974Z,8.13
2019-01-04T16:05:02.943Z,9.30
2019-01-04T16:07:31.910Z,8.97
2019-01-04T16:10:00.895Z,10.80
2019-01-04T16:12:29.865Z,8.37
2019-01-04T16:14:58.842Z,9.20
2019-01-04T16:17:27.815Z,26.47
2019-01-04T16:19:56.809Z,18.47
2019-01-04T16:22:25.806Z,10.70
2019-01-04T16:24:54.762Z,10.60
2019-01-04T16:27:23.746Z,10.10
2019-01-04T16:29:52.728Z,13.10
2019-01-04T16:32:21.698Z,11.07
2019-01-04T16:34:50.673Z,11.93
2019-01-04T16:37:19.650Z,11.73
2019-01-04T16:40:07.975Z,13.73
2019-01-04T16:42:47.118Z,11.33
2019-01-04T19:00:25.603Z,14.93
2019-01-04T19:03:13.926Z,13.43
2019-01-04T20:12:46.997Z,30.13
2019-01-04T20:15:54.602Z,22.97
2019-01-04T20:25:26.829Z,26.30
